createdAt,value
2022-09-15T00:01:31.566Z,19.49
2022-09-15T00:04:00.163Z,19.48
2022-09-15T00:06:28.643Z,19.49
2022-09-15T00:08:59.339Z,19.47
2022-09-15T00:11:29.718Z,19.31
2022-09-15T00:14:01.317Z,19.50
2022-09-15T00:16:31.814Z,19.41
2022-09-15T00:19:00.605Z,19.53
2022-09-15T00:21:33.015Z,19.54
2022-09-15T00:24:03.723Z,19.55
2022-09-15T00:26:32.458Z,19.53
2022-09-15T00:29:02.015Z,19.56
2022-09-15T00:31:32.059Z,19.57
2022-09-15T00:34:03.833Z,19.57
2022-09-15T00:36:32.176Z,19.58
2022-09-15T00:39:01.738Z,19.56
2022-09-15T00:41:30.025Z,19.54
2022-09-15T00:44:00.863Z,19.52
2022-09-15T00:46:32.086Z,19.54
2022-09-15T00:49:08.662Z,19.53
2022-09-15T00:51:44.221Z,19.51
2022-09-15T00:54:20.283Z,19.46
2022-09-15T00:56:52.937Z,19.41
2022-09-15T00:59:25.998Z,19.31
2022-09-15T01:02:00.587Z,19.51
2022-09-15T01:04:28.950Z,19.53
2022-09-15T01:07:04.767Z,19.53
2022-09-15T01:09:39.635Z,19.47
2022-09-15T01:12:08.657Z,19.47
2022-09-15T01:14:37.113Z,19.44
2022-09-15T01:17:12.180Z,19.44
2022-09-15T01:20:31.499Z,19.48
2022-09-15T01:23:27.140Z,19.36
2022-09-15T01:26:42.260Z,19.42
2022-09-15T01:29:49.229Z,19.38
2022-09-15T01:32:41.270Z,19.37
2022-09-15T01:35:26.038Z,19.43
2022-09-15T01:38:01.981Z,19.46
2022-09-15T01:40:36.811Z,19.51
2022-09-15T01:43:06.687Z,19.58
2022-09-15T01:45:37.746Z,19.38
2022-09-15T01:48:09.227Z,19.45
2022-09-15T01:50:44.494Z,19.44
2022-09-15T01:53:17.295Z,19.48
2022-09-15T01:55:53.913Z,19.58
2022-09-15T01:58:22.647Z,19.64
2022-09-15T02:00:57.571Z,19.68
2022-09-15T02:03:33.659Z,19.79
2022-09-15T02:06:09.151Z,19.83
2022-09-15T02:08:44.833Z,19.94
2022-09-15T02:11:18.248Z,20.01
2022-09-15T02:13:54.121Z,20.08
2022-09-15T02:16:27.015Z,20.15
2022-09-15T02:19:10.759Z,20.15
2022-09-15T02:21:59.570Z,20.24
2022-09-15T02:24:33.707Z,20.21
2022-09-15T02:27:03.727Z,20.20
2022-09-15T02:29:36.278Z,20.03
2022-09-15T02:32:08.115Z,20.11
2022-09-15T02:34:42.296Z,20.16
2022-09-15T02:37:12.538Z,20.28
2022-09-15T02:39:46.588Z,20.26
2022-09-15T02:42:24.581Z,20.27
2022-09-15T02:44:53.042Z,20.23
2022-09-15T02:47:23.085Z,20.22
2022-09-15T02:49:51.359Z,20.24
2022-09-15T02:52:19.594Z,20.16
2022-09-15T02:54:48.070Z,20.22
2022-09-15T02:57:16.485Z,20.26
2022-09-15T03:00:07.631Z,20.29
2022-09-15T03:02:37.416Z,20.30
2022-09-15T03:05:06.835Z,20.29
2022-09-15T03:07:35.025Z,20.31
2022-09-15T03:10:03.248Z,20.29
2022-09-15T03:12:31.439Z,20.25
2022-09-15T03:14:59.659Z,20.23
2022-09-15T03:17:27.877Z,20.22
2022-09-15T03:19:57.484Z,20.16
2022-09-15T03:22:25.831Z,20.21
2022-09-15T03:24:54.064Z,20.23
2022-09-15T03:27:22.266Z,20.29
2022-09-15T03:29:50.626Z,20.30
2022-09-15T03:32:18.881Z,20.23
2022-09-15T03:34:47.259Z,20.17
2022-09-15T03:37:17.185Z,20.12
2022-09-15T03:39:45.576Z,20.16
2022-09-15T03:42:14.132Z,20.10
2022-09-15T03:44:42.328Z,20.14
2022-09-15T03:47:10.515Z,20.17
2022-09-15T03:49:38.845Z,20.26
2022-09-15T03:52:07.037Z,20.14
2022-09-15T03:54:36.617Z,20.29
2022-09-15T03:57:05.339Z,20.27
2022-09-15T03:59:33.538Z,20.27
2022-09-15T04:02:01.787Z,20.26
2022-09-15T04:04:30.195Z,20.21
2022-09-15T04:06:58.444Z,20.18
2022-09-15T04:09:26.814Z,20.19
2022-09-15T04:11:56.455Z,20.13
2022-09-15T04:14:24.655Z,20.08
2022-09-15T04:16:52.887Z,20.11
2022-09-15T04:19:21.153Z,20.08
2022-09-15T04:21:49.371Z,20.11
2022-09-15T04:24:17.650Z,20.10
2022-09-15T04:26:45.908Z,20.11
2022-09-15T04:29:17.602Z,20.13
2022-09-15T04:31:46.819Z,20.08
2022-09-15T04:34:15.199Z,20.12
2022-09-15T04:36:43.631Z,20.11
2022-09-15T04:39:11.949Z,20.04
2022-09-15T04:41:40.186Z,20.12
2022-09-15T04:44:08.599Z,20.14
2022-09-15T04:46:38.364Z,20.19
2022-09-15T04:49:06.631Z,20.22
2022-09-15T04:51:34.827Z,20.20
2022-09-15T04:54:03.298Z,20.21
2022-09-15T04:56:31.538Z,20.15
2022-09-15T04:59:04.202Z,20.15
2022-09-15T05:01:36.240Z,20.14
2022-09-15T05:04:06.142Z,20.11
2022-09-15T05:06:36.253Z,20.13
2022-09-15T05:09:10.309Z,20.16
2022-09-15T05:11:39.439Z,20.07
2022-09-15T05:14:09.615Z,20.08
2022-09-15T05:16:38.449Z,20.02
2022-09-15T05:19:08.048Z,19.96
2022-09-15T05:21:36.264Z,19.96
2022-09-15T05:24:04.599Z,19.70
2022-09-15T05:26:32.855Z,19.82
2022-09-15T05:29:01.120Z,19.79
2022-09-15T05:31:33.748Z,19.73
2022-09-15T05:34:05.381Z,19.69
2022-09-15T05:36:35.239Z,19.73
2022-09-15T05:39:03.924Z,19.78
2022-09-15T05:41:32.753Z,19.83
2022-09-15T05:44:00.958Z,19.84
2022-09-15T05:46:30.138Z,19.79
2022-09-15T05:48:59.797Z,19.87
2022-09-15T05:51:30.140Z,19.90
2022-09-15T05:54:00.093Z,19.92
2022-09-15T05:56:28.384Z,19.94
2022-09-15T05:58:57.044Z,19.97
2022-09-15T06:01:27.605Z,20.04
2022-09-15T06:03:56.558Z,20.08
2022-09-15T06:06:26.907Z,20.08
2022-09-15T06:08:58.769Z,20.07
2022-09-15T06:11:31.734Z,20.09
2022-09-15T06:14:02.982Z,20.05
2022-09-15T06:16:34.497Z,20.02
2022-09-15T06:19:03.416Z,19.95
2022-09-15T06:21:33.545Z,20.03
2022-09-15T06:24:04.520Z,20.03
2022-09-15T06:26:35.087Z,19.84
2022-09-15T06:29:06.378Z,19.89
2022-09-15T06:31:35.831Z,20.11
2022-09-15T06:34:05.420Z,20.22
2022-09-15T06:36:33.906Z,20.19
2022-09-15T06:39:02.807Z,20.02
2022-09-15T06:41:47.430Z,20.03
2022-09-15T06:44:21.303Z,19.98
2022-09-15T06:46:50.050Z,20.19
2022-09-15T06:49:19.123Z,20.22
2022-09-15T06:51:47.436Z,20.20
2022-09-15T06:54:16.986Z,19.96
2022-09-15T06:56:46.035Z,20.15
2022-09-15T06:59:16.668Z,20.26
2022-09-15T07:01:46.389Z,20.24
2022-09-15T07:04:14.762Z,20.26
2022-09-15T07:06:42.972Z,20.37
2022-09-15T07:09:12.871Z,20.41
2022-09-15T07:11:41.482Z,20.46
2022-09-15T07:14:09.718Z,20.53
2022-09-15T07:16:38.142Z,20.56
2022-09-15T07:19:08.050Z,20.52
2022-09-15T07:21:36.777Z,20.50
2022-09-15T07:24:07.420Z,20.44
2022-09-15T07:26:36.481Z,20.50
2022-09-15T07:29:07.560Z,20.43
2022-09-15T07:31:39.024Z,20.39
2022-09-15T07:34:09.347Z,20.37
2022-09-15T07:36:37.872Z,20.38
2022-09-15T07:39:07.005Z,20.45
2022-09-15T07:41:35.475Z,20.38
2022-09-15T07:44:04.109Z,20.52
2022-09-15T07:46:33.891Z,20.55
2022-09-15T07:49:03.186Z,20.60
2022-09-15T07:51:33.196Z,20.71
2022-09-15T07:54:01.714Z,20.78
2022-09-15T07:56:30.145Z,20.61
2022-09-15T07:58:58.946Z,20.39
2022-09-15T08:01:27.395Z,20.29
2022-09-15T08:03:56.006Z,20.23
2022-09-15T08:06:26.548Z,20.33
2022-09-15T08:09:00.367Z,19.92
2022-09-15T08:11:30.193Z,20.29
2022-09-15T08:14:02.263Z,20.09
2022-09-15T08:16:30.689Z,20.19
2022-09-15T08:18:58.970Z,20.11
2022-09-15T08:21:27.766Z,20.13
2022-09-15T08:23:59.393Z,20.02
2022-09-15T08:26:31.054Z,20.01
2022-09-15T08:29:00.654Z,20.07
2022-09-15T08:31:28.974Z,19.96
2022-09-15T08:33:57.731Z,19.60
2022-09-15T08:36:27.841Z,19.56
2022-09-15T08:38:57.875Z,19.69
2022-09-15T08:41:29.912Z,19.78
2022-09-15T08:44:04.613Z,19.82
2022-09-15T08:46:39.202Z,19.79
2022-09-15T08:49:26.827Z,19.94
2022-09-15T08:52:10.317Z,20.04
2022-09-15T08:54:40.228Z,20.10
2022-09-15T08:57:18.122Z,20.14
2022-09-15T08:59:47.223Z,20.42
2022-09-15T09:02:43.576Z,20.69
2022-09-15T09:05:29.331Z,20.90
2022-09-15T09:08:34.379Z,21.12
2022-09-15T09:11:20.083Z,20.59
2022-09-15T09:13:54.254Z,21.38
2022-09-15T09:16:43.014Z,21.05
2022-09-15T09:19:47.639Z,20.83
2022-09-15T09:22:19.678Z,21.14
2022-09-15T09:24:52.510Z,20.90
2022-09-15T09:27:29.088Z,20.87
2022-09-15T09:30:04.919Z,21.00
2022-09-15T09:32:41.498Z,21.19
2022-09-15T09:35:23.711Z,21.03
2022-09-15T09:37:54.706Z,20.98
2022-09-15T09:40:23.651Z,20.97
2022-09-15T09:42:53.662Z,21.13
2022-09-15T09:45:22.962Z,21.20
2022-09-15T09:47:51.438Z,21.30
2022-09-15T09:50:36.256Z,21.14
2022-09-15T09:53:25.045Z,21.02
2022-09-15T09:55:55.090Z,20.79
2022-09-15T09:58:26.449Z,20.50
2022-09-15T10:00:54.891Z,20.68
2022-09-15T10:03:30.612Z,20.66
2022-09-15T10:06:08.406Z,20.93
2022-09-15T10:08:37.912Z,20.94
2022-09-15T10:11:10.299Z,21.16
2022-09-15T10:13:54.589Z,21.08
2022-09-15T10:16:23.849Z,21.17
2022-09-15T10:18:54.537Z,21.42
2022-09-15T10:21:25.669Z,21.28
2022-09-15T10:23:54.119Z,21.46
2022-09-15T10:26:33.218Z,20.82
2022-09-15T10:29:26.842Z,21.08
2022-09-15T10:31:55.151Z,21.23
2022-09-15T10:34:31.295Z,21.04
2022-09-15T10:37:19.818Z,21.21
2022-09-15T10:39:55.176Z,21.28
2022-09-15T10:42:53.008Z,21.00
2022-09-15T10:45:35.828Z,20.77
2022-09-15T10:48:24.253Z,20.59
2022-09-15T10:50:59.097Z,20.63
2022-09-15T10:53:58.681Z,21.12
2022-09-15T10:56:31.764Z,21.22
2022-09-15T10:59:17.910Z,21.12
2022-09-15T11:02:12.749Z,20.68
2022-09-15T11:05:10.307Z,20.81
2022-09-15T11:07:54.138Z,20.74
2022-09-15T11:10:32.004Z,20.55
2022-09-15T11:13:12.403Z,20.24
2022-09-15T11:15:55.329Z,20.01
2022-09-15T11:19:02.090Z,20.28
2022-09-15T11:21:35.743Z,20.41
2022-09-15T11:24:29.660Z,20.58
2022-09-15T11:27:03.383Z,20.52
2022-09-15T11:29:42.313Z,20.48
2022-09-15T11:32:17.436Z,20.30
2022-09-15T11:34:54.951Z,20.25
2022-09-15T11:37:28.056Z,20.35
2022-09-15T11:40:03.874Z,20.16
2022-09-15T11:42:38.931Z,20.46
2022-09-15T11:45:16.275Z,20.50
2022-09-15T11:47:48.903Z,20.76
2022-09-15T11:50:26.958Z,20.82
2022-09-15T11:53:02.237Z,20.76
2022-09-15T11:55:36.991Z,20.56
2022-09-15T11:58:22.157Z,20.76
2022-09-15T12:00:56.359Z,20.29
2022-09-15T12:03:32.180Z,20.04
2022-09-15T12:06:08.773Z,20.07
2022-09-15T12:08:43.442Z,20.21
2022-09-15T12:11:18.969Z,20.19
2022-09-15T12:13:47.666Z,20.11
2022-09-15T12:16:17.179Z,20.28
2022-09-15T12:18:51.371Z,20.43
2022-09-15T12:21:32.055Z,20.26
2022-09-15T12:24:04.129Z,20.24
2022-09-15T12:26:34.999Z,20.40
2022-09-15T12:29:04.983Z,20.77
2022-09-15T12:31:38.439Z,20.81
2022-09-15T12:34:36.122Z,20.87
2022-09-15T12:37:13.202Z,20.65
2022-09-15T12:39:43.619Z,20.56
2022-09-15T12:42:20.438Z,20.62
2022-09-15T12:44:53.972Z,20.46
2022-09-15T12:47:33.689Z,20.29
2022-09-15T12:50:10.244Z,20.68
2022-09-15T12:52:48.776Z,20.81
2022-09-15T12:55:23.893Z,20.62
2022-09-15T12:57:56.555Z,20.50
2022-09-15T13:00:49.999Z,20.81
2022-09-15T13:04:20.228Z,20.83
2022-09-15T13:07:33.668Z,20.93
2022-09-15T13:10:32.045Z,20.81
2022-09-15T13:13:20.889Z,20.79
2022-09-15T13:15:53.252Z,20.65
2022-09-15T13:18:23.388Z,20.39
2022-09-15T13:21:00.324Z,20.37
2022-09-15T13:23:36.649Z,20.16
2022-09-15T13:26:10.123Z,20.21
2022-09-15T13:28:39.216Z,19.62
2022-09-15T13:31:20.520Z,19.36
2022-09-15T13:38:16.762Z,19.46
2022-09-15T13:41:05.335Z,19.35
2022-09-15T13:44:27.090Z,19.46
2022-09-15T13:47:16.456Z,19.61
2022-09-15T13:49:53.343Z,19.55
2022-09-15T13:52:57.195Z,19.32
2022-09-15T13:55:28.531Z,19.62
2022-09-15T14:01:00.098Z,19.44
2022-09-15T14:03:37.267Z,19.40
2022-09-15T14:06:16.998Z,19.53
2022-09-15T14:08:51.291Z,19.56
2022-09-15T14:11:30.094Z,19.40
2022-09-15T14:14:00.573Z,19.45
2022-09-15T14:16:36.829Z,19.43
2022-09-15T14:19:31.223Z,18.97
2022-09-15T14:21:59.503Z,19.13
2022-09-15T14:24:30.618Z,19.42
2022-09-15T14:27:03.311Z,19.45
2022-09-15T14:29:31.696Z,19.47
2022-09-15T14:32:04.953Z,19.53
2022-09-15T14:34:37.273Z,19.54
2022-09-15T14:37:08.806Z,19.12
2022-09-15T14:39:40.236Z,19.23
2022-09-15T14:42:21.811Z,19.17
2022-09-15T14:47:43.340Z,18.82
2022-09-15T14:50:17.275Z,18.88
2022-09-15T14:52:50.567Z,19.13
2022-09-15T14:55:26.047Z,19.33
2022-09-15T14:58:01.577Z,19.11
2022-09-15T15:00:35.461Z,19.01
2022-09-15T15:03:19.838Z,18.96
2022-09-15T15:05:58.135Z,18.53
2022-09-15T15:08:37.725Z,18.93
2022-09-15T15:11:10.710Z,18.60
2022-09-15T15:13:42.057Z,19.01
2022-09-15T15:16:24.472Z,18.75
2022-09-15T15:18:57.051Z,18.85
2022-09-15T15:21:41.120Z,18.97
2022-09-15T15:24:21.271Z,19.00
2022-09-15T15:26:51.220Z,18.89
2022-09-15T15:29:44.124Z,19.00
2022-09-15T15:32:15.040Z,18.67
2022-09-15T15:34:52.233Z,18.77
2022-09-15T15:37:28.104Z,18.83
2022-09-15T15:39:57.708Z,18.70
2022-09-15T15:42:27.779Z,18.78
2022-09-15T15:45:17.405Z,18.92
2022-09-15T15:47:45.639Z,18.76
2022-09-15T15:50:20.807Z,18.70
2022-09-15T15:52:50.511Z,18.80
2022-09-15T15:55:21.460Z,19.01
2022-09-15T15:57:52.249Z,18.99
2022-09-15T16:00:24.226Z,19.01
2022-09-15T16:02:54.112Z,19.15
2022-09-15T16:05:28.284Z,19.30
2022-09-15T16:08:00.297Z,19.03
2022-09-15T16:10:32.027Z,19.05
2022-09-15T16:13:00.368Z,19.13
2022-09-15T16:15:28.695Z,19.25
2022-09-15T16:17:57.058Z,18.87
2022-09-15T16:20:28.029Z,18.85
2022-09-15T16:22:56.335Z,18.78
2022-09-15T16:25:33.799Z,18.50
2022-09-15T16:28:02.531Z,18.91
2022-09-15T16:30:30.824Z,19.18
2022-09-15T16:32:59.538Z,19.21
2022-09-15T16:35:40.506Z,18.84
2022-09-15T16:38:09.466Z,19.08
2022-09-15T16:40:37.962Z,19.14
2022-09-15T16:43:11.112Z,19.08
2022-09-15T16:45:40.881Z,19.04
2022-09-15T16:48:10.349Z,18.96
2022-09-15T16:50:50.151Z,18.93
2022-09-15T16:53:30.873Z,19.07
2022-09-15T16:55:59.325Z,18.81
2022-09-15T16:58:28.138Z,18.86
2022-09-15T17:00:56.979Z,18.40
2022-09-15T17:03:27.639Z,18.80
2022-09-15T17:05:58.882Z,19.00
2022-09-15T17:08:29.880Z,18.79
2022-09-15T17:10:59.067Z,19.04
2022-09-15T17:13:30.513Z,19.06
2022-09-15T17:15:59.804Z,19.25
2022-09-15T17:18:29.523Z,19.16
2022-09-15T17:20:59.449Z,18.27
2022-09-15T17:23:31.682Z,18.76
2022-09-15T17:26:02.615Z,18.80
2022-09-15T17:28:33.521Z,18.65
2022-09-15T17:31:04.527Z,18.64
2022-09-15T17:33:33.543Z,18.68
2022-09-15T17:36:03.745Z,18.21
2022-09-15T17:38:32.355Z,18.06
2022-09-15T17:41:00.753Z,18.37
2022-09-15T17:43:31.294Z,18.54
2022-09-15T17:46:00.038Z,18.50
2022-09-15T17:48:28.451Z,18.29
2022-09-15T17:50:56.767Z,18.25
2022-09-15T17:53:27.518Z,18.01
2022-09-15T17:55:57.211Z,18.13
2022-09-15T17:58:26.729Z,18.33
2022-09-15T18:00:55.368Z,18.37
2022-09-15T18:03:27.885Z,18.51
2022-09-15T18:05:58.515Z,18.59
2022-09-15T18:08:28.967Z,18.63
2022-09-15T18:10:57.363Z,18.71
2022-09-15T18:13:27.946Z,18.61
2022-09-15T18:15:56.215Z,18.38
2022-09-15T18:18:26.797Z,18.47
2022-09-15T18:20:57.838Z,18.35
2022-09-15T18:23:29.558Z,18.12
2022-09-15T18:25:58.322Z,18.49
2022-09-15T18:28:26.720Z,18.62
2022-09-15T18:30:55.048Z,18.75
2022-09-15T18:33:26.299Z,18.56
2022-09-15T18:35:58.827Z,18.35
2022-09-15T18:38:28.552Z,18.07
2022-09-15T18:40:58.297Z,18.17
2022-09-15T18:43:28.687Z,18.18
2022-09-15T18:46:00.646Z,17.95
2022-09-15T18:48:29.894Z,17.56
2022-09-15T18:50:58.737Z,17.50
2022-09-15T18:53:28.486Z,17.64
2022-09-15T18:55:56.853Z,17.51
2022-09-15T18:58:25.240Z,17.29
2022-09-15T19:00:53.457Z,17.24
2022-09-15T19:03:21.824Z,17.27
2022-09-15T19:05:50.537Z,17.25
2022-09-15T19:08:19.002Z,17.20
2022-09-15T19:10:58.354Z,17.49
2022-09-15T19:13:26.620Z,17.22
2022-09-15T19:15:55.143Z,17.50
2022-09-15T19:18:23.835Z,17.42
2022-09-15T19:20:52.025Z,17.30
2022-09-15T19:23:20.409Z,17.47
2022-09-15T19:25:50.100Z,17.37
2022-09-15T19:28:18.370Z,17.52
2022-09-15T19:30:46.687Z,17.53
2022-09-15T19:33:14.998Z,17.40
2022-09-15T19:35:43.837Z,17.39
2022-09-15T19:38:12.172Z,17.47
2022-09-15T19:40:40.435Z,17.44
2022-09-15T19:43:10.452Z,17.50
2022-09-15T19:45:42.558Z,17.31
2022-09-15T19:48:10.834Z,17.57
2022-09-15T19:50:40.043Z,17.56
2022-09-15T19:53:08.693Z,17.60
2022-09-15T19:55:36.956Z,17.23
2022-09-15T19:58:05.261Z,17.13
2022-09-15T20:00:35.392Z,17.44
2022-09-15T20:03:03.632Z,17.49
2022-09-15T20:05:31.838Z,17.27
2022-09-15T20:08:00.792Z,16.62
2022-09-15T20:10:29.036Z,17.14
2022-09-15T20:12:57.478Z,17.50
2022-09-15T20:15:26.154Z,17.29
2022-09-15T20:17:56.571Z,17.25
2022-09-15T20:20:25.147Z,17.24
2022-09-15T20:22:53.478Z,17.36
2022-09-15T20:25:24.013Z,17.28
2022-09-15T20:27:53.454Z,17.21
2022-09-15T20:30:22.291Z,17.20
2022-09-15T20:32:50.561Z,17.13
2022-09-15T20:35:20.327Z,17.19
2022-09-15T20:37:49.471Z,17.24
2022-09-15T20:40:18.011Z,17.29
2022-09-15T20:42:47.660Z,17.09
2022-09-15T20:45:16.424Z,16.89
2022-09-15T20:47:44.667Z,16.86
2022-09-15T20:50:12.883Z,16.85
2022-09-15T20:52:42.507Z,16.97
2022-09-15T20:55:11.086Z,17.14
2022-09-15T20:57:39.282Z,17.15
2022-09-15T21:00:10.318Z,17.08
2022-09-15T21:02:39.073Z,17.09
2022-09-15T21:05:07.744Z,17.13
2022-09-15T21:07:36.307Z,17.21
2022-09-15T21:10:08.086Z,17.17
2022-09-15T21:12:36.366Z,16.99
2022-09-15T21:15:05.252Z,17.00
2022-09-15T21:17:33.746Z,16.96
2022-09-15T21:20:02.019Z,17.10
2022-09-15T21:22:30.339Z,17.26
2022-09-15T21:24:58.684Z,17.44
2022-09-15T21:27:28.874Z,17.52
2022-09-15T21:29:57.524Z,17.71
2022-09-15T21:32:25.802Z,17.86
2022-09-15T21:34:55.970Z,18.00
2022-09-15T21:37:26.919Z,17.73
2022-09-15T21:39:55.932Z,17.65
2022-09-15T21:42:25.057Z,17.61
2022-09-15T21:44:55.607Z,17.08
2022-09-15T21:47:23.996Z,17.32
2022-09-15T21:49:52.231Z,17.56
2022-09-15T21:52:20.544Z,17.56
2022-09-15T21:54:49.139Z,17.65
2022-09-15T21:57:17.382Z,17.72
2022-09-15T21:59:45.610Z,17.82
2022-09-15T22:02:17.127Z,17.96
2022-09-15T22:04:45.556Z,17.72
2022-09-15T22:07:15.182Z,17.62
2022-09-15T22:09:43.427Z,17.70
2022-09-15T22:12:11.679Z,17.68
2022-09-15T22:14:39.949Z,17.46
2022-09-15T22:17:08.149Z,17.47
2022-09-15T22:19:37.773Z,17.47
2022-09-15T22:22:06.321Z,17.40
2022-09-15T22:24:34.561Z,17.44
2022-09-15T22:27:02.848Z,17.57
2022-09-15T22:29:31.098Z,17.48
2022-09-15T22:31:59.356Z,17.57
2022-09-15T22:34:29.115Z,17.66
2022-09-15T22:36:58.972Z,17.69
2022-09-15T22:39:50.321Z,17.52
2022-09-15T22:42:15.543Z,17.37
2022-09-15T22:44:44.159Z,17.25
2022-09-15T22:47:12.404Z,17.12
2022-09-15T22:49:40.662Z,17.21
2022-09-15T22:52:10.695Z,16.99
2022-09-15T22:54:38.921Z,17.05
2022-09-15T22:57:07.827Z,17.21
2022-09-15T22:59:36.213Z,17.00
2022-09-15T23:02:04.535Z,17.17
2022-09-15T23:04:32.801Z,17.10
2022-09-15T23:07:00.996Z,17.29
2022-09-15T23:09:30.810Z,17.06
2022-09-15T23:11:59.460Z,17.34
2022-09-15T23:14:27.909Z,17.33
2022-09-15T23:16:56.213Z,17.28
2022-09-15T23:19:24.494Z,17.29
2022-09-15T23:21:52.758Z,17.15
2022-09-15T23:24:21.567Z,17.09
2022-09-15T23:26:51.183Z,17.07
2022-09-15T23:29:19.395Z,17.01
2022-09-15T23:31:47.669Z,16.96
2022-09-15T23:34:16.023Z,16.90
2022-09-15T23:36:44.200Z,16.90
2022-09-15T23:39:12.474Z,16.82
2022-09-15T23:41:41.348Z,16.86
2022-09-15T23:44:11.173Z,17.00
2022-09-15T23:46:39.517Z,17.07
2022-09-15T23:49:07.880Z,17.09
2022-09-15T23:51:36.247Z,17.14
2022-09-15T23:54:04.983Z,17.26
2022-09-15T23:56:33.799Z,17.17
2022-09-15T23:59:02.597Z,17.40
